createdAt,value
2023-04-15T00:01:59.991Z,97892.40
2023-04-15T00:04:28.346Z,97896.60
2023-04-15T00:06:55.002Z,97894.80
2023-04-15T00:09:21.594Z,97892.40
2023-04-15T00:11:48.040Z,97890.00
2023-04-15T00:14:14.477Z,97892.20
2023-04-15T00:16:41.483Z,97897.20
2023-04-15T00:19:07.895Z,97899.00
2023-04-15T00:21:34.604Z,97896.20
2023-04-15T00:24:01.866Z,97897.80
2023-04-15T00:26:28.498Z,97897.20
2023-04-15T00:28:54.965Z,97900.20
2023-04-15T00:31:21.856Z,97900.00
2023-04-15T00:33:48.740Z,97897.60
2023-04-15T00:36:15.461Z,97895.60
2023-04-15T00:38:42.272Z,97890.60
2023-04-15T00:41:10.862Z,97887.80
2023-04-15T00:43:37.412Z,97892.00
2023-04-15T00:46:05.930Z,97889.20
2023-04-15T00:48:32.656Z,97888.20
2023-04-15T00:50:59.399Z,97884.60
2023-04-15T00:53:26.139Z,97887.20
2023-04-15T00:55:52.944Z,97888.60
2023-04-15T00:58:19.427Z,97894.40
2023-04-15T01:00:46.667Z,97893.00
2023-04-15T01:03:14.146Z,97890.60
2023-04-15T01:05:41.581Z,97888.20
2023-04-15T01:08:08.278Z,97890.00
2023-04-15T01:10:35.344Z,97894.20
2023-04-15T01:13:03.764Z,97884.00
2023-04-15T01:15:31.443Z,97885.40
2023-04-15T01:17:59.818Z,97881.40
2023-04-15T01:20:27.563Z,97882.00
2023-04-15T01:22:55.876Z,97881.60
2023-04-15T01:25:33.648Z,97882.60
2023-04-15T01:28:00.866Z,97883.80
2023-04-15T01:30:27.453Z,97883.80
2023-04-15T01:32:54.269Z,97887.00
2023-04-15T01:35:21.564Z,97888.00
2023-04-15T01:37:49.309Z,97886.40
2023-04-15T01:40:16.611Z,97892.00
2023-04-15T01:42:43.002Z,97889.20
2023-04-15T01:45:10.089Z,97894.80
2023-04-15T01:47:36.539Z,97891.00
2023-04-15T01:50:03.355Z,97894.40
2023-04-15T01:52:30.538Z,97897.40
2023-04-15T01:54:57.145Z,97902.00
2023-04-15T01:57:23.651Z,97897.40
2023-04-15T01:59:50.078Z,97901.00
2023-04-15T02:02:17.410Z,97902.60
2023-04-15T02:04:44.711Z,97904.00
2023-04-15T02:07:11.102Z,97900.00
2023-04-15T02:09:37.461Z,97908.60
2023-04-15T02:12:04.229Z,97910.60
2023-04-15T02:14:30.775Z,97903.20
2023-04-15T02:16:57.226Z,97900.20
2023-04-15T02:19:23.702Z,97901.20
2023-04-15T02:21:50.122Z,97907.40
2023-04-15T02:24:16.878Z,97909.20
2023-04-15T02:26:43.302Z,97910.80
2023-04-15T02:29:09.718Z,97906.80
2023-04-15T02:31:37.121Z,97903.60
2023-04-15T02:34:04.344Z,97912.80
2023-04-15T02:36:31.965Z,97907.20
2023-04-15T02:38:58.654Z,97906.00
2023-04-15T02:41:27.831Z,97913.40
2023-04-15T02:43:54.805Z,97909.40
2023-04-15T02:46:22.819Z,97912.40
2023-04-15T02:48:50.622Z,97916.40
2023-04-15T02:51:22.491Z,97906.00
2023-04-15T02:53:50.558Z,97907.00
2023-04-15T02:56:17.506Z,97908.00
2023-04-15T02:58:45.650Z,97910.60
2023-04-15T03:01:12.263Z,97913.20
2023-04-15T03:03:38.913Z,97918.20
2023-04-15T03:06:05.628Z,97908.20
2023-04-15T03:08:31.982Z,97911.60
2023-04-15T03:11:00.881Z,97911.20
2023-04-15T03:13:27.326Z,97918.20
2023-04-15T03:15:53.809Z,97908.80
2023-04-15T03:18:20.305Z,97912.60
2023-04-15T03:20:46.926Z,97918.00
2023-04-15T03:23:13.382Z,97917.00
2023-04-15T03:25:39.768Z,97919.20
2023-04-15T03:28:06.391Z,97916.80
2023-04-15T03:30:32.895Z,97917.20
2023-04-15T03:32:59.408Z,97916.00
2023-04-15T03:35:25.984Z,97919.20
2023-04-15T03:37:52.417Z,97921.80
2023-04-15T03:40:19.164Z,97918.60
2023-04-15T03:42:45.597Z,97917.00
2023-04-15T03:45:12.052Z,97918.80
2023-04-15T03:47:38.525Z,97918.60
2023-04-15T03:50:05.783Z,97919.60
2023-04-15T03:52:32.304Z,97923.80
2023-04-15T03:54:58.723Z,97928.40
2023-04-15T03:57:25.510Z,97925.20
2023-04-15T03:59:51.968Z,97935.00
2023-04-15T04:02:18.533Z,97936.60
2023-04-15T04:04:45.074Z,97932.60
2023-04-15T04:07:16.650Z,97935.20
2023-04-15T04:09:43.171Z,97932.40
2023-04-15T04:12:09.721Z,97935.00
2023-04-15T04:14:36.153Z,97935.40
2023-04-15T04:17:02.646Z,97938.60
2023-04-15T04:19:30.010Z,97938.20
2023-04-15T04:21:56.458Z,97936.40
2023-04-15T04:24:22.962Z,97940.60
2023-04-15T04:26:49.474Z,97939.60
2023-04-15T04:29:16.292Z,97939.00
2023-04-15T04:31:42.776Z,97941.80
2023-04-15T04:34:09.275Z,97943.60
2023-04-15T04:36:35.822Z,97943.60
2023-04-15T04:39:02.510Z,97944.00
2023-04-15T04:41:29.841Z,97942.40
2023-04-15T04:43:56.412Z,97943.40
2023-04-15T04:46:23.871Z,97945.40
2023-04-15T04:48:50.743Z,97943.00
2023-04-15T04:51:18.130Z,97938.40
2023-04-15T04:53:44.561Z,97953.20
2023-04-15T04:56:11.071Z,97950.20
2023-04-15T04:58:38.135Z,97951.60
2023-04-15T05:01:04.764Z,97951.80
2023-04-15T05:03:31.357Z,97948.40
2023-04-15T05:05:58.088Z,97948.60
2023-04-15T05:08:24.455Z,97949.60
2023-04-15T05:10:51.129Z,97950.40
2023-04-15T05:13:17.532Z,97952.40
2023-04-15T05:15:45.003Z,97950.40
2023-04-15T05:18:11.525Z,97953.40
2023-04-15T05:20:38.370Z,97949.40
2023-04-15T05:23:05.010Z,97947.40
2023-04-15T05:25:31.708Z,97946.40
2023-04-15T05:27:58.088Z,97948.80
2023-04-15T05:30:24.700Z,97952.60
2023-04-15T05:32:51.238Z,97946.40
2023-04-15T05:35:17.843Z,97951.60
2023-04-15T05:37:44.464Z,97957.60
2023-04-15T05:40:11.355Z,97967.40
2023-04-15T05:42:37.806Z,97969.40
2023-04-15T05:45:08.933Z,97971.60
2023-04-15T05:47:37.589Z,97970.80
2023-04-15T05:50:04.838Z,97978.00
2023-04-15T05:52:32.087Z,97978.80
2023-04-15T05:54:58.483Z,97978.20
2023-04-15T05:57:24.927Z,97977.20
2023-04-15T05:59:53.982Z,97971.00
2023-04-15T06:02:20.654Z,97964.40
2023-04-15T06:04:47.398Z,97967.40
2023-04-15T06:07:14.115Z,97975.40
2023-04-15T06:09:40.567Z,97976.00
2023-04-15T06:12:12.040Z,97981.00
2023-04-15T06:14:39.415Z,97986.40
2023-04-15T06:17:06.901Z,97988.60
2023-04-15T06:19:34.584Z,97990.20
2023-04-15T06:22:01.616Z,97989.80
2023-04-15T06:24:28.872Z,97991.20
2023-04-15T06:26:55.932Z,97995.20
2023-04-15T06:29:22.372Z,97998.80
2023-04-15T06:31:49.496Z,97996.60
2023-04-15T06:34:16.179Z,97997.00
2023-04-15T06:36:42.616Z,97997.60
2023-04-15T06:39:09.174Z,97995.00
2023-04-15T06:41:36.363Z,97999.80
2023-04-15T06:44:03.155Z,97997.60
2023-04-15T06:46:29.597Z,97997.20
2023-04-15T06:48:56.112Z,97998.80
2023-04-15T06:51:25.582Z,97997.00
2023-04-15T06:53:53.276Z,98004.20
2023-04-15T06:56:19.722Z,98006.40
2023-04-15T06:58:46.310Z,98010.00
2023-04-15T07:01:14.389Z,98015.40
2023-04-15T07:03:41.961Z,98017.20
2023-04-15T07:06:09.499Z,98027.00
2023-04-15T07:08:36.030Z,98026.40
2023-04-15T07:11:02.463Z,98028.80
2023-04-15T07:13:31.872Z,98026.80
2023-04-15T07:15:58.689Z,98026.40
2023-04-15T07:18:25.581Z,98031.00
2023-04-15T07:20:52.239Z,98032.00
2023-04-15T07:23:18.834Z,98032.20
2023-04-15T07:25:45.343Z,98031.80
2023-04-15T07:28:11.955Z,98033.60
2023-04-15T07:30:38.482Z,98033.20
2023-04-15T07:33:05.115Z,98035.60
2023-04-15T07:35:31.662Z,98037.20
2023-04-15T07:37:58.089Z,98037.40
2023-04-15T07:40:24.665Z,98040.20
2023-04-15T07:42:51.450Z,98036.00
2023-04-15T07:45:17.966Z,98038.60
2023-04-15T07:47:44.446Z,98036.00
2023-04-15T07:50:14.750Z,98034.20
2023-04-15T07:52:41.259Z,98035.00
2023-04-15T07:55:08.853Z,98036.40
2023-04-15T07:57:36.796Z,98040.40
2023-04-15T08:00:05.883Z,98044.40
2023-04-15T08:02:32.717Z,98039.80
2023-04-15T08:04:59.860Z,98045.60
2023-04-15T08:07:26.477Z,98052.80
2023-04-15T08:09:52.967Z,98051.80
2023-04-15T08:12:19.494Z,98048.20
2023-04-15T08:14:46.532Z,98047.40
2023-04-15T08:17:13.200Z,98049.60
2023-04-15T08:19:40.816Z,98053.00
2023-04-15T08:22:15.164Z,98054.80
2023-04-15T08:24:44.646Z,98054.00
2023-04-15T08:27:11.265Z,98054.00
2023-04-15T08:29:37.794Z,98054.00
2023-04-15T08:32:04.756Z,98051.40
2023-04-15T08:34:31.295Z,98055.60
2023-04-15T08:36:57.703Z,98052.80
2023-04-15T08:39:24.252Z,98054.40
2023-04-15T08:42:02.700Z,98049.20
2023-04-15T08:44:32.056Z,98055.00
2023-04-15T08:47:03.018Z,98056.40
2023-04-15T08:49:30.023Z,98054.80
2023-04-15T08:51:59.540Z,98058.20
2023-04-15T08:54:28.068Z,98056.40
2023-04-15T08:56:54.985Z,98049.60
2023-04-15T08:59:22.588Z,98054.60
2023-04-15T09:01:53.722Z,98054.40
2023-04-15T09:04:20.520Z,98050.80
2023-04-15T09:06:47.154Z,98052.80
2023-04-15T09:09:14.513Z,98050.20
2023-04-15T09:11:42.476Z,98049.20
2023-04-15T09:14:08.925Z,98052.40
2023-04-15T09:17:02.835Z,98043.60
2023-04-15T09:19:30.157Z,98040.80
2023-04-15T09:21:59.398Z,98044.40
2023-04-15T09:24:36.114Z,98040.60
2023-04-15T09:27:03.655Z,98037.40
2023-04-15T09:29:30.313Z,98038.60
2023-04-15T09:31:56.781Z,98037.00
2023-04-15T09:34:37.008Z,98038.60
2023-04-15T09:37:04.157Z,98039.40
2023-04-15T09:39:54.530Z,98046.60
2023-04-15T09:42:24.548Z,98045.20
2023-04-15T09:44:55.054Z,98046.40
2023-04-15T09:47:32.466Z,98049.20
2023-04-15T09:50:01.515Z,98057.00
2023-04-15T09:52:28.942Z,98057.60
2023-04-15T09:54:59.096Z,98055.00
2023-04-15T09:57:25.840Z,98056.20
2023-04-15T09:59:52.599Z,98061.00
2023-04-15T10:02:21.512Z,98067.40
2023-04-15T10:04:49.486Z,98067.60
2023-04-15T10:07:20.423Z,98067.40
2023-04-15T10:09:49.193Z,98070.80
2023-04-15T10:12:20.692Z,98069.00
2023-04-15T10:15:00.849Z,98066.40
2023-04-15T10:17:35.478Z,98071.20
2023-04-15T10:20:05.162Z,98067.20
2023-04-15T10:22:33.162Z,98067.60
2023-04-15T10:25:00.913Z,98072.00
2023-04-15T10:27:27.945Z,98072.40
2023-04-15T10:29:54.997Z,98071.20
2023-04-15T10:32:22.648Z,98073.80
2023-04-15T10:34:52.454Z,98079.80
2023-04-15T10:37:23.311Z,98081.60
2023-04-15T10:39:50.760Z,98083.20
2023-04-15T10:42:19.727Z,98083.80
2023-04-15T10:44:53.954Z,98088.20
2023-04-15T10:47:22.171Z,98087.60
2023-04-15T10:49:50.980Z,98083.40
2023-04-15T10:52:24.243Z,98079.60
2023-04-15T10:54:50.795Z,98081.20
2023-04-15T10:57:23.855Z,98083.60
2023-04-15T10:59:59.652Z,98080.40
2023-04-15T11:03:07.376Z,98080.80
2023-04-15T11:05:42.811Z,98082.20
2023-04-15T11:08:11.556Z,98081.40
2023-04-15T11:10:38.001Z,98084.20
2023-04-15T11:13:11.251Z,98085.20
2023-04-15T11:15:45.020Z,98087.60
2023-04-15T11:18:20.823Z,98080.40
2023-04-15T11:20:57.583Z,98081.60
2023-04-15T11:23:46.700Z,98082.20
2023-04-15T11:26:14.123Z,98087.20
2023-04-15T11:28:45.085Z,98084.60
2023-04-15T11:31:16.342Z,98089.20
2023-04-15T11:34:02.439Z,98086.20
2023-04-15T11:36:32.124Z,98089.80
2023-04-15T11:39:00.219Z,98096.00
2023-04-15T11:41:27.341Z,98097.40
2023-04-15T11:43:53.876Z,98096.60
2023-04-15T11:46:22.620Z,98106.80
2023-04-15T11:48:49.106Z,98106.80
2023-04-15T11:51:15.591Z,98110.80
2023-04-15T11:53:52.167Z,98110.60
2023-04-15T11:56:27.642Z,98108.40
2023-04-15T11:58:58.716Z,98114.20
2023-04-15T12:01:47.348Z,98113.00
2023-04-15T12:04:25.192Z,98120.20
2023-04-15T12:06:52.204Z,98122.40
2023-04-15T12:09:20.215Z,98126.00
2023-04-15T12:11:55.120Z,98131.40
2023-04-15T12:14:26.683Z,98136.40
2023-04-15T12:17:05.083Z,98134.00
2023-04-15T12:19:41.899Z,98136.60
2023-04-15T12:22:17.237Z,98144.40
2023-04-15T12:24:47.948Z,98153.60
2023-04-15T12:27:16.924Z,98153.60
2023-04-15T12:29:44.125Z,98152.20
2023-04-15T12:32:13.645Z,98153.40
2023-04-15T12:34:52.491Z,98149.20
2023-04-15T12:37:19.435Z,98153.00
2023-04-15T12:39:49.169Z,98158.80
2023-04-15T12:42:17.484Z,98160.80
2023-04-15T12:44:44.368Z,98153.60
2023-04-15T12:47:12.360Z,98165.40
2023-04-15T12:49:39.689Z,98166.20
2023-04-15T12:52:07.036Z,98167.40
2023-04-15T12:54:34.440Z,98171.80
2023-04-15T12:57:06.927Z,98178.00
2023-04-15T12:59:34.903Z,98183.00
2023-04-15T13:02:02.895Z,98189.20
2023-04-15T13:04:31.106Z,98188.20
2023-04-15T13:06:58.237Z,98186.00
2023-04-15T13:09:25.033Z,98186.40
2023-04-15T13:11:51.727Z,98190.60
2023-04-15T13:14:18.264Z,98186.60
2023-04-15T13:16:44.760Z,98194.60
2023-04-15T13:19:11.271Z,98194.60
2023-04-15T13:21:37.750Z,98190.00
2023-04-15T13:24:05.266Z,98194.20
2023-04-15T13:26:32.194Z,98196.80
2023-04-15T13:28:59.188Z,98197.20
2023-04-15T13:31:26.166Z,98186.40
2023-04-15T13:33:52.854Z,98187.20
2023-04-15T13:36:19.408Z,98187.00
2023-04-15T13:38:45.859Z,98185.60
2023-04-15T13:41:12.250Z,98185.00
2023-04-15T13:43:38.756Z,98175.80
2023-04-15T13:46:05.581Z,98181.40
2023-04-15T13:48:32.187Z,98183.00
2023-04-15T13:50:58.658Z,98182.60
2023-04-15T13:53:37.700Z,98183.80
2023-04-15T13:56:07.715Z,98188.80
2023-04-15T13:58:34.315Z,98189.00
2023-04-15T14:01:02.542Z,98196.20
2023-04-15T14:03:30.782Z,98199.00
2023-04-15T14:05:58.155Z,98198.00
2023-04-15T14:08:25.599Z,98201.60
2023-04-15T14:10:52.215Z,98203.60
2023-04-15T14:13:19.601Z,98208.60
2023-04-15T14:15:46.607Z,98210.40
2023-04-15T14:18:13.141Z,98212.40
2023-04-15T14:20:39.616Z,98209.80
2023-04-15T14:23:06.168Z,98210.00
2023-04-15T14:25:34.107Z,98213.00
2023-04-15T14:28:02.265Z,98211.80
2023-04-15T14:30:28.980Z,98214.80
2023-04-15T14:32:55.659Z,98215.20
2023-04-15T14:35:22.225Z,98223.60
2023-04-15T14:37:48.712Z,98222.60
2023-04-15T14:40:15.295Z,98218.00
2023-04-15T14:42:41.750Z,98219.60
2023-04-15T14:45:09.222Z,98217.60
2023-04-15T14:47:35.813Z,98217.80
2023-04-15T14:50:02.601Z,98225.00
2023-04-15T14:52:32.930Z,98222.00
2023-04-15T14:54:59.305Z,98219.40
2023-04-15T14:57:25.698Z,98225.00
2023-04-15T14:59:56.535Z,98220.80
2023-04-15T15:02:37.318Z,98220.80
2023-04-15T15:05:06.545Z,98228.00
2023-04-15T15:07:33.144Z,98235.20
2023-04-15T15:09:59.693Z,98244.40
2023-04-15T15:12:26.209Z,98246.20
2023-04-15T15:14:52.718Z,98249.80
2023-04-15T15:17:19.351Z,98251.20
2023-04-15T15:19:45.774Z,98250.20
2023-04-15T15:22:12.314Z,98255.20
2023-04-15T15:24:38.814Z,98264.00
2023-04-15T15:27:05.279Z,98267.20
2023-04-15T15:29:31.869Z,98272.40
2023-04-15T15:31:59.730Z,98279.00
2023-04-15T15:34:26.801Z,98284.20
2023-04-15T15:36:55.009Z,98283.00
2023-04-15T15:39:23.746Z,98283.60
2023-04-15T15:41:50.558Z,98296.00
2023-04-15T15:44:17.088Z,98288.80
2023-04-15T15:46:43.872Z,98285.40
2023-04-15T15:49:11.448Z,98284.20
2023-04-15T15:51:38.225Z,98279.00
2023-04-15T15:54:04.608Z,98274.60
2023-04-15T15:56:31.309Z,98274.80
2023-04-15T15:58:57.818Z,98283.20
2023-04-15T16:01:24.300Z,98275.00
2023-04-15T16:03:51.049Z,98278.60
2023-04-15T16:06:17.554Z,98269.40
2023-04-15T16:08:43.982Z,98273.00
2023-04-15T16:11:10.565Z,98278.20
2023-04-15T16:13:37.049Z,98284.80
2023-04-15T16:16:03.576Z,98291.20
2023-04-15T16:18:30.109Z,98288.60
2023-04-15T16:20:57.163Z,98295.00
2023-04-15T16:23:23.789Z,98292.80
2023-04-15T16:25:50.692Z,98301.00
2023-04-15T16:28:26.461Z,98305.20
2023-04-15T16:30:54.125Z,98306.80
2023-04-15T16:33:21.029Z,98312.40
2023-04-15T16:35:47.488Z,98310.60
2023-04-15T16:38:13.940Z,98312.20
2023-04-15T16:40:40.406Z,98313.40
2023-04-15T16:43:08.168Z,98315.20
2023-04-15T16:45:34.704Z,98321.40
2023-04-15T16:48:01.290Z,98321.00
2023-04-15T16:50:28.029Z,98317.40
2023-04-15T16:52:55.028Z,98317.60
2023-04-15T16:55:21.504Z,98324.00
2023-04-15T16:58:01.073Z,98329.80
2023-04-15T17:00:29.747Z,98332.60
2023-04-15T17:02:56.544Z,98333.00
2023-04-15T17:05:23.061Z,98333.00
2023-04-15T17:07:49.595Z,98345.00
2023-04-15T17:10:16.448Z,98350.40
2023-04-15T17:12:43.099Z,98358.20
2023-04-15T17:15:10.137Z,98357.60
2023-04-15T17:17:36.636Z,98355.20
2023-04-15T17:20:04.388Z,98365.00
2023-04-15T17:22:31.084Z,98375.40
2023-04-15T17:24:57.531Z,98375.00
2023-04-15T17:27:24.706Z,98379.40
2023-04-15T17:29:51.127Z,98381.80
2023-04-15T17:32:17.849Z,98385.20
2023-04-15T17:34:50.393Z,98389.60
2023-04-15T17:37:18.395Z,98396.20
2023-04-15T17:39:45.104Z,98402.40
2023-04-15T17:42:12.563Z,98399.40
2023-04-15T17:44:39.632Z,98405.00
2023-04-15T17:47:06.223Z,98406.40
2023-04-15T17:49:34.136Z,98416.80
2023-04-15T17:52:01.138Z,98416.60
2023-04-15T17:54:27.779Z,98420.20
2023-04-15T17:56:54.226Z,98416.80
2023-04-15T17:59:20.608Z,98425.20
2023-04-15T18:01:47.093Z,98428.40
2023-04-15T18:04:13.719Z,98436.60
2023-04-15T18:06:40.446Z,98441.40
2023-04-15T18:09:08.599Z,98433.60
2023-04-15T18:11:35.287Z,98435.40
2023-04-15T18:14:04.922Z,98436.60
2023-04-15T18:16:32.072Z,98438.40
2023-04-15T18:18:59.487Z,98436.20
2023-04-15T18:21:27.105Z,98433.40
2023-04-15T18:23:54.036Z,98437.40
2023-04-15T18:26:21.756Z,98443.40
2023-04-15T18:28:48.795Z,98445.20
2023-04-15T18:31:15.919Z,98453.20
2023-04-15T18:33:42.699Z,98460.40
2023-04-15T18:36:10.588Z,98460.20
2023-04-15T18:38:37.383Z,98466.60
2023-04-15T18:41:05.619Z,98466.20
2023-04-15T18:43:32.572Z,98474.00
2023-04-15T18:46:00.067Z,98476.20
2023-04-15T18:48:27.256Z,98479.00
2023-04-15T18:50:54.228Z,98475.00
2023-04-15T18:53:21.497Z,98480.60
2023-04-15T18:55:48.302Z,98491.40
2023-04-15T18:58:15.124Z,98508.60
2023-04-15T19:00:43.860Z,98521.00
2023-04-15T19:03:11.457Z,98519.40
2023-04-15T19:05:38.389Z,98518.00
2023-04-15T19:08:05.123Z,98517.00
2023-04-15T19:10:31.669Z,98525.00
2023-04-15T19:12:58.098Z,98538.20
2023-04-15T19:15:24.535Z,98547.40
2023-04-15T19:17:50.987Z,98545.60
2023-04-15T19:20:17.563Z,98543.40
2023-04-15T19:22:44.733Z,98534.20
2023-04-15T19:25:11.421Z,98521.20
2023-04-15T19:27:38.328Z,98518.00
2023-04-15T19:30:07.951Z,98515.60
2023-04-15T19:32:35.793Z,98509.80
2023-04-15T19:35:02.208Z,98511.40
2023-04-15T19:37:28.710Z,98512.40
2023-04-15T19:39:56.069Z,98518.00
2023-04-15T19:42:22.572Z,98520.00
2023-04-15T19:44:49.044Z,98522.00
2023-04-15T19:47:16.405Z,98526.60
2023-04-15T19:49:43.211Z,98523.80
2023-04-15T19:52:09.693Z,98523.00
2023-04-15T19:54:36.183Z,98524.00
2023-04-15T19:57:02.859Z,98526.60
2023-04-15T19:59:29.243Z,98519.80
2023-04-15T20:01:55.773Z,98518.80
2023-04-15T20:04:22.833Z,98519.20
2023-04-15T20:06:49.927Z,98516.20
2023-04-15T20:09:16.575Z,98518.40
2023-04-15T20:12:44.937Z,98514.20
2023-04-15T20:14:29.845Z,98516.20
2023-04-15T20:16:56.463Z,98521.20
2023-04-15T20:19:22.870Z,98522.80
2023-04-15T20:21:50.822Z,98526.20
2023-04-15T20:24:20.166Z,98524.80
2023-04-15T20:26:46.739Z,98526.00
2023-04-15T20:29:13.981Z,98525.80
2023-04-15T20:31:40.816Z,98526.40
2023-04-15T20:34:08.846Z,98528.00
2023-04-15T20:36:37.315Z,98528.20
2023-04-15T20:39:04.163Z,98531.00
2023-04-15T20:41:30.882Z,98524.80
2023-04-15T20:43:57.341Z,98530.40
2023-04-15T20:46:25.251Z,98530.00
2023-04-15T20:48:53.706Z,98528.20
2023-04-15T20:51:20.104Z,98530.40
2023-04-15T20:53:46.628Z,98535.40
2023-04-15T20:56:13.017Z,98538.60
2023-04-15T20:58:39.435Z,98539.80
2023-04-15T21:01:06.217Z,98544.20
2023-04-15T21:03:32.977Z,98547.20
2023-04-15T21:05:59.459Z,98548.00
2023-04-15T21:08:29.576Z,98550.60
2023-04-15T21:10:57.482Z,98554.60
2023-04-15T21:13:24.244Z,98556.20
2023-04-15T21:15:53.805Z,98557.80
2023-04-15T21:18:21.639Z,98562.00
2023-04-15T21:20:57.526Z,98566.00
2023-04-15T21:23:24.013Z,98567.00
2023-04-15T21:25:50.362Z,98569.00
2023-04-15T21:28:17.105Z,98573.80
2023-04-15T21:30:43.528Z,98566.80
2023-04-15T21:33:10.042Z,98569.00
2023-04-15T21:35:36.588Z,98574.00
2023-04-15T21:38:03.011Z,98566.60
2023-04-15T21:40:29.760Z,98568.20
2023-04-15T21:42:56.219Z,98566.80
2023-04-15T21:45:22.635Z,98574.80
2023-04-15T21:48:04.197Z,98577.60
2023-04-15T21:50:37.017Z,98580.20
2023-04-15T21:53:04.781Z,98582.20
2023-04-15T21:55:31.320Z,98576.80
2023-04-15T21:57:58.084Z,98582.60
2023-04-15T22:00:24.616Z,98582.80
2023-04-15T22:02:51.783Z,98585.60
2023-04-15T22:05:18.590Z,98586.60
2023-04-15T22:07:45.086Z,98587.80
2023-04-15T22:10:11.704Z,98587.80
2023-04-15T22:12:41.890Z,98593.40
2023-04-15T22:15:08.896Z,98589.60
2023-04-15T22:17:35.520Z,98597.00
2023-04-15T22:20:02.696Z,98596.00
2023-04-15T22:22:35.481Z,98595.40
2023-04-15T22:25:11.579Z,98599.00
2023-04-15T22:27:38.161Z,98602.80
2023-04-15T22:30:05.559Z,98605.40
2023-04-15T22:32:32.257Z,98603.60
2023-04-15T22:34:58.662Z,98607.20
2023-04-15T22:37:25.190Z,98605.60
2023-04-15T22:39:52.068Z,98607.80
2023-04-15T22:42:18.518Z,98608.40
2023-04-15T22:44:44.959Z,98608.80
2023-04-15T22:47:11.464Z,98610.20
2023-04-15T22:49:37.910Z,98610.00
2023-04-15T22:52:04.550Z,98610.20
2023-04-15T22:54:31.149Z,98614.60
2023-04-15T22:56:58.016Z,98615.40
2023-04-15T22:59:25.082Z,98617.40
2023-04-15T23:01:51.656Z,98616.60
2023-04-15T23:04:25.366Z,98620.00
2023-04-15T23:06:54.326Z,98620.40
2023-04-15T23:09:21.004Z,98617.60
2023-04-15T23:11:47.905Z,98619.20
2023-04-15T23:14:14.276Z,98622.80
2023-04-15T23:16:40.888Z,98622.60
2023-04-15T23:19:07.759Z,98623.80
2023-04-15T23:21:34.557Z,98620.40
2023-04-15T23:24:00.934Z,98618.00
2023-04-15T23:26:27.441Z,98619.00
2023-04-15T23:28:53.881Z,98617.40
2023-04-15T23:31:20.375Z,98619.80
2023-04-15T23:33:46.859Z,98623.80
2023-04-15T23:36:13.253Z,98626.80
2023-04-15T23:38:39.716Z,98624.80
2023-04-15T23:41:06.151Z,98622.60
2023-04-15T23:43:32.703Z,98619.20
2023-04-15T23:45:59.078Z,98626.60
2023-04-15T23:48:25.675Z,98628.20
2023-04-15T23:50:52.151Z,98629.40
2023-04-15T23:53:18.570Z,98633.40
2023-04-15T23:55:45.026Z,98629.60
2023-04-15T23:58:11.756Z,98634.60
